SAAR

Islas Malvinas Airport

Rosario, Argentina
TAF SAAR 240500Z 2406/2506 09015KT CAVOK TX18/2418Z TN11/2410Z BECMG 2407/2409 9999 SCT020 SCT030 BKN080 TEMPO 2409/2414 09010KT 8000 RA BKN030 FEW040TCU BKN060 BECMG 2418/2421 14015KT 9999 BKN045
Issued Valid From Valid To
Oct-24 @ 05:00 UTC
(46 minutes ago)
Oct-24 @ 06:00 UTC
(in 14 minutes)
Oct-25 @ 06:00 UTC
(in 24 hours)
Oct-24 @ 06:00 to Oct-24 @ 07:00
TAF SAAR 240500Z 2406/2506 09015KT CAVOK TX18/2418Z TN11/2410Z
Wind Visibility Clouds
90° at 15 knots 10,000+ meters
  • No significant clouds
Becoming Oct-24 @ 07:00 to Oct-24 @ 18:00
BECMG 2407/2409 9999 SCT020 SCT030 BKN080
Wind Visibility Clouds
90° at 15 knots 10,000+ meters
  • Scattered at 2,000' AGL
  • Scattered at 3,000' AGL
  • Broken at 8,000' AGL
Temporary Oct-24 @ 09:00 to Oct-24 @ 14:00
TEMPO 2409/2414 09010KT 8000 RA BKN030 FEW040TCU BKN060
Wind Visibility Clouds Conditions
90° at 10 knots 7,998 meters
  • Broken at 3,000' AGL
  • Few at 4,000' AGL
  • Broken at 6,000' AGL
  • Rain
Becoming Oct-24 @ 18:00 to Oct-25 @ 06:00
BECMG 2418/2421 14015KT 9999 BKN045
Wind Visibility Clouds
140° at 15 knots 10,000+ meters
  • Broken at 4,500' AGL
TAF SAAR 240500Z 2406/2506 09015KT CAVOK TX18/2418Z TN11/2410Z BECMG 2407/2409 9999 SCT020 SCT030 BKN080 TEMPO 2409/2414 09010KT 8000 RA BKN030 FEW040TCU BKN060 BECMG 2418/2421 14015KT 9999 BKN045
Issued Oct-24 @ 05:00 UTC
(46 minutes ago)
Valid From Oct-24 @ 06:00 UTC
(in 14 minutes)
Valid To Oct-25 @ 06:00 UTC
(in 24 hours)
Oct-24 @ 06:00 - Oct-24 @ 07:00
Wind Visibility
90° at 15 knots 10,000+ meters
Clouds
  • No significant clouds
Becoming Oct-24 @ 07:00 - Oct-24 @ 18:00
Wind Visibility
90° at 15 knots 10,000+ meters
Clouds
  • Scattered at 2,000' AGL
  • Scattered at 3,000' AGL
  • Broken at 8,000' AGL
Temporary Oct-24 @ 09:00 - Oct-24 @ 14:00
Wind Visibility
90° at 10 knots 7,998 meters
Clouds
  • Broken at 3,000' AGL
  • Few at 4,000' AGL
  • Broken at 6,000' AGL
Conditions
  • Rain
Becoming Oct-24 @ 18:00 - Oct-25 @ 06:00
Wind Visibility
140° at 15 knots 10,000+ meters
Clouds
  • Broken at 4,500' AGL